sensor_id;sensor_type;location;lat;lon;timestamp;temperature;humidity
40600;DHT22;26309;50.924;4.754;2024-02-21T03:04:07;10.60;99.90
40600;DHT22;26309;50.924;4.754;2024-02-21T03:06:34;10.50;99.90
40600;DHT22;26309;50.924;4.754;2024-02-21T03:08:59;10.50;99.90
40600;DHT22;26309;50.924;4.754;2024-02-21T03:11:27;10.40;99.90
40600;DHT22;26309;50.924;4.754;2024-02-21T03:13:55;10.30;99.90
40600;DHT22;26309;50.924;4.754;2024-02-21T03:16:24;10.30;99.90
40600;DHT22;26309;50.924;4.754;2024-02-21T03:18:50;10.30;99.90
40600;DHT22;26309;50.924;4.754;2024-02-21T03:21:16;10.40;99.90
40600;DHT22;26309;50.924;4.754;2024-02-21T03:23:42;10.40;99.90
40600;DHT22;26309;50.924;4.754;2024-02-21T03:26:07;10.30;99.90
40600;DHT22;26309;50.924;4.754;2024-02-21T03:28:33;10.20;99.90
40600;DHT22;26309;50.924;4.754;2024-02-21T03:31:00;10.30;99.90
40600;DHT22;26309;50.924;4.754;2024-02-21T03:33:26;10.30;99.90
40600;DHT22;26309;50.924;4.754;2024-02-21T03:35:52;10.30;99.90
40600;DHT22;26309;50.924;4.754;2024-02-21T03:38:20;10.30;99.90
40600;DHT22;26309;50.924;4.754;2024-02-21T03:40:46;10.30;99.90
40600;DHT22;26309;50.924;4.754;2024-02-21T03:43:12;10.30;99.90
40600;DHT22;26309;50.924;4.754;2024-02-21T03:45:37;10.30;99.90
40600;DHT22;26309;50.924;4.754;2024-02-21T03:48:04;10.30;99.90
40600;DHT22;26309;50.924;4.754;2024-02-21T03:50:30;10.40;99.90
40600;DHT22;26309;50.924;4.754;2024-02-21T03:52:55;10.40;99.90
40600;DHT22;26309;50.924;4.754;2024-02-21T03:55:21;10.50;99.90
40600;DHT22;26309;50.924;4.754;2024-02-21T03:57:47;10.40;99.90
40600;DHT22;26309;50.924;4.754;2024-02-21T04:00:13;10.40;99.90
40600;DHT22;26309;50.924;4.754;2024-02-21T04:02:39;10.40;99.90
40600;DHT22;26309;50.924;4.754;2024-02-21T04:05:05;10.50;99.90
40600;DHT22;26309;50.924;4.754;2024-02-21T04:07:31;10.40;99.90
40600;DHT22;26309;50.924;4.754;2024-02-21T04:09:57;10.40;99.90
40600;DHT22;26309;50.924;4.754;2024-02-21T04:12:23;10.30;99.90
40600;DHT22;26309;50.924;4.754;2024-02-21T04:14:52;10.30;99.90
40600;DHT22;26309;50.924;4.754;2024-02-21T04:17:18;10.30;99.90
40600;DHT22;26309;50.924;4.754;2024-02-21T04:19:43;10.20;99.90
40600;DHT22;26309;50.924;4.754;2024-02-21T04:22:09;10.40;99.90
40600;DHT22;26309;50.924;4.754;2024-02-21T04:24:35;10.30;99.90
40600;DHT22;26309;50.924;4.754;2024-02-21T04:27:01;10.30;99.90
40600;DHT22;26309;50.924;4.754;2024-02-21T04:29:27;10.40;99.90
40600;DHT22;26309;50.924;4.754;2024-02-21T04:31:54;10.30;99.90
40600;DHT22;26309;50.924;4.754;2024-02-21T04:34:21;10.40;99.90
40600;DHT22;26309;50.924;4.754;2024-02-21T04:36:47;10.30;99.90
40600;DHT22;26309;50.924;4.754;2024-02-21T04:39:13;10.30;99.90
40600;DHT22;26309;50.924;4.754;2024-02-21T04:41:39;10.30;99.90
40600;DHT22;26309;50.924;4.754;2024-02-21T04:44:05;10.20;99.90
40600;DHT22;26309;50.924;4.754;2024-02-21T04:46:30;10.20;99.90
40600;DHT22;26309;50.924;4.754;2024-02-21T04:48:58;10.30;99.90
40600;DHT22;26309;50.924;4.754;2024-02-21T04:51:24;10.40;99.90
40600;DHT22;26309;50.924;4.754;2024-02-21T04:53:50;10.40;99.90
40600;DHT22;26309;50.924;4.754;2024-02-21T04:56:16;10.30;99.90
40600;DHT22;26309;50.924;4.754;2024-02-21T04:58:42;10.40;99.90
40600;DHT22;26309;50.924;4.754;2024-02-21T05:01:08;10.40;99.90
40600;DHT22;26309;50.924;4.754;2024-02-21T05:03:34;10.30;99.90
40600;DHT22;26309;50.924;4.754;2024-02-21T05:06:00;10.40;99.90
40600;DHT22;26309;50.924;4.754;2024-02-21T05:08:26;10.40;99.90
40600;DHT22;26309;50.924;4.754;2024-02-21T05:10:52;10.50;99.90
40600;DHT22;26309;50.924;4.754;2024-02-21T05:13:19;10.50;99.90
40600;DHT22;26309;50.924;4.754;2024-02-21T05:15:44;10.50;99.90
40600;DHT22;26309;50.924;4.754;2024-02-21T05:18:10;10.50;99.90
40600;DHT22;26309;50.924;4.754;2024-02-21T05:20:36;10.50;99.90
40600;DHT22;26309;50.924;4.754;2024-02-21T05:23:02;10.40;99.90
40600;DHT22;26309;50.924;4.754;2024-02-21T05:25:28;10.30;99.90
40600;DHT22;26309;50.924;4.754;2024-02-21T05:27:54;10.30;99.90
40600;DHT22;26309;50.924;4.754;2024-02-21T05:30:21;10.30;99.90
40600;DHT22;26309;50.924;4.754;2024-02-21T05:32:47;10.40;99.90
40600;DHT22;26309;50.924;4.754;2024-02-21T05:35:14;10.40;99.90
40600;DHT22;26309;50.924;4.754;2024-02-21T05:37:40;10.40;99.90
40600;DHT22;26309;50.924;4.754;2024-02-21T05:40:06;10.40;99.90
40600;DHT22;26309;50.924;4.754;2024-02-21T05:42:32;10.30;99.90
40600;DHT22;26309;50.924;4.754;2024-02-21T05:44:58;10.30;99.90
40600;DHT22;26309;50.924;4.754;2024-02-21T05:47:23;10.30;99.90
40600;DHT22;26309;50.924;4.754;2024-02-21T05:49:49;10.30;99.90
40600;DHT22;26309;50.924;4.754;2024-02-21T05:52:19;10.30;99.90
40600;DHT22;26309;50.924;4.754;2024-02-21T05:54:44;10.40;99.90
40600;DHT22;26309;50.924;4.754;2024-02-21T05:57:10;10.30;99.90
40600;DHT22;26309;50.924;4.754;2024-02-21T05:59:38;10.30;99.90
40600;DHT22;26309;50.924;4.754;2024-02-21T06:02:05;10.30;99.90
40600;DHT22;26309;50.924;4.754;2024-02-21T06:04:34;10.30;99.90
40600;DHT22;26309;50.924;4.754;2024-02-21T06:07:00;10.30;99.90
40600;DHT22;26309;50.924;4.754;2024-02-21T06:09:26;10.40;99.90
40600;DHT22;26309;50.924;4.754;2024-02-21T06:11:53;10.40;99.90
40600;DHT22;26309;50.924;4.754;2024-02-21T06:14:19;10.40;99.90
40600;DHT22;26309;50.924;4.754;2024-02-21T06:16:45;10.40;99.90
40600;DHT22;26309;50.924;4.754;2024-02-21T06:19:11;10.50;99.90
40600;DHT22;26309;50.924;4.754;2024-02-21T06:21:37;10.60;99.90
40600;DHT22;26309;50.924;4.754;2024-02-21T06:24:03;10.60;99.90
40600;DHT22;26309;50.924;4.754;2024-02-21T06:26:29;10.50;99.90
40600;DHT22;26309;50.924;4.754;2024-02-21T06:28:56;10.50;99.90
40600;DHT22;26309;50.924;4.754;2024-02-21T06:31:22;10.50;99.90
40600;DHT22;26309;50.924;4.754;2024-02-21T06:33:48;10.50;99.90
40600;DHT22;26309;50.924;4.754;2024-02-21T06:36:14;10.50;99.90
40600;DHT22;26309;50.924;4.754;2024-02-21T06:38:41;10.40;99.90
40600;DHT22;26309;50.924;4.754;2024-02-21T06:41:15;10.40;99.90
40600;DHT22;26309;50.924;4.754;2024-02-21T06:43:41;10.30;99.90
40600;DHT22;26309;50.924;4.754;2024-02-21T06:46:07;10.30;99.90
40600;DHT22;26309;50.924;4.754;2024-02-21T06:48:33;10.30;99.90
40600;DHT22;26309;50.924;4.754;2024-02-21T06:50:59;10.40;99.90
40600;DHT22;26309;50.924;4.754;2024-02-21T06:53:25;10.30;99.90
40600;DHT22;26309;50.924;4.754;2024-02-21T06:55:51;10.40;99.90
40600;DHT22;26309;50.924;4.754;2024-02-21T06:58:16;10.50;99.90
40600;DHT22;26309;50.924;4.754;2024-02-21T07:00:42;10.50;99.90
40600;DHT22;26309;50.924;4.754;2024-02-21T07:03:08;10.50;99.90
40600;DHT22;26309;50.924;4.754;2024-02-21T07:05:48;10.50;99.90
40600;DHT22;26309;50.924;4.754;2024-02-21T07:08:14;10.60;99.90
40600;DHT22;26309;50.924;4.754;2024-02-21T07:10:40;10.60;99.90
40600;DHT22;26309;50.924;4.754;2024-02-21T07:13:05;10.40;99.90
40600;DHT22;26309;50.924;4.754;2024-02-21T07:15:31;10.40;99.90
40600;DHT22;26309;50.924;4.754;2024-02-21T07:17:58;10.30;99.90
40600;DHT22;26309;50.924;4.754;2024-02-21T07:20:24;10.30;99.90
40600;DHT22;26309;50.924;4.754;2024-02-21T07:22:50;10.30;99.90
40600;DHT22;26309;50.924;4.754;2024-02-21T07:25:16;10.30;99.90
40600;DHT22;26309;50.924;4.754;2024-02-21T07:27:43;10.30;99.90
40600;DHT22;26309;50.924;4.754;2024-02-21T07:30:09;10.30;99.90
40600;DHT22;26309;50.924;4.754;2024-02-21T07:32:35;10.30;99.90
40600;DHT22;26309;50.924;4.754;2024-02-21T07:35:01;10.20;99.90
40600;DHT22;26309;50.924;4.754;2024-02-21T07:37:27;10.20;99.90
40600;DHT22;26309;50.924;4.754;2024-02-21T07:39:55;10.20;99.90
40600;DHT22;26309;50.924;4.754;2024-02-21T07:42:20;10.30;99.90
40600;DHT22;26309;50.924;4.754;2024-02-21T07:44:46;10.20;99.90
40600;DHT22;26309;50.924;4.754;2024-02-21T07:47:12;10.30;99.90
40600;DHT22;26309;50.924;4.754;2024-02-21T07:49:44;10.30;99.90
40600;DHT22;26309;50.924;4.754;2024-02-21T07:52:11;10.30;99.90
40600;DHT22;26309;50.924;4.754;2024-02-21T07:54:37;10.30;99.90
40600;DHT22;26309;50.924;4.754;2024-02-21T07:57:03;10.30;99.90
40600;DHT22;26309;50.924;4.754;2024-02-21T07:59:29;10.30;99.90
40600;DHT22;26309;50.924;4.754;2024-02-21T08:01:56;10.20;99.90
40600;DHT22;26309;50.924;4.754;2024-02-21T08:04:24;10.20;99.90
40600;DHT22;26309;50.924;4.754;2024-02-21T08:06:53;10.20;99.90
40600;DHT22;26309;50.924;4.754;2024-02-21T08:09:22;10.30;99.90
40600;DHT22;26309;50.924;4.754;2024-02-21T08:11:48;10.30;99.90
40600;DHT22;26309;50.924;4.754;2024-02-21T08:14:14;10.30;99.90
40600;DHT22;26309;50.924;4.754;2024-02-21T08:16:42;10.30;99.90
40600;DHT22;26309;50.924;4.754;2024-02-21T08:19:08;10.30;99.90
40600;DHT22;26309;50.924;4.754;2024-02-21T08:21:35;10.40;99.90
40600;DHT22;26309;50.924;4.754;2024-02-21T08:24:01;10.60;99.90
40600;DHT22;26309;50.924;4.754;2024-02-21T08:26:27;10.50;99.90
40600;DHT22;26309;50.924;4.754;2024-02-21T08:28:59;10.60;99.90
40600;DHT22;26309;50.924;4.754;2024-02-21T08:31:26;10.60;99.90
40600;DHT22;26309;50.924;4.754;2024-02-21T08:34:00;10.70;99.90
40600;DHT22;26309;50.924;4.754;2024-02-21T08:36:36;10.70;99.90
40600;DHT22;26309;50.924;4.754;2024-02-21T08:39:03;10.70;99.90
40600;DHT22;26309;50.924;4.754;2024-02-21T08:41:34;10.70;99.90
40600;DHT22;26309;50.924;4.754;2024-02-21T08:44:00;10.70;99.90
40600;DHT22;26309;50.924;4.754;2024-02-21T08:46:26;10.70;99.90
40600;DHT22;26309;50.924;4.754;2024-02-21T08:48:54;10.70;99.90
40600;DHT22;26309;50.924;4.754;2024-02-21T08:51:20;10.70;99.90
40600;DHT22;26309;50.924;4.754;2024-02-21T08:53:46;10.80;99.90
40600;DHT22;26309;50.924;4.754;2024-02-21T08:56:13;10.90;99.90
40600;DHT22;26309;50.924;4.754;2024-02-21T08:58:42;10.90;99.90
40600;DHT22;26309;50.924;4.754;2024-02-21T09:01:08;11.00;99.90
40600;DHT22;26309;50.924;4.754;2024-02-21T09:03:37;11.00;99.90
40600;DHT22;26309;50.924;4.754;2024-02-21T09:06:07;11.00;99.90
40600;DHT22;26309;50.924;4.754;2024-02-21T09:08:33;10.90;99.90
40600;DHT22;26309;50.924;4.754;2024-02-21T09:11:00;10.90;99.90
40600;DHT22;26309;50.924;4.754;2024-02-21T09:13:27;10.90;99.90
40600;DHT22;26309;50.924;4.754;2024-02-21T09:15:52;10.80;99.90
40600;DHT22;26309;50.924;4.754;2024-02-21T09:18:18;10.90;99.90
40600;DHT22;26309;50.924;4.754;2024-02-21T09:20:45;11.00;99.90
40600;DHT22;26309;50.924;4.754;2024-02-21T09:23:11;11.00;99.90
40600;DHT22;26309;50.924;4.754;2024-02-21T09:25:37;11.10;99.90
40600;DHT22;26309;50.924;4.754;2024-02-21T09:28:03;11.10;99.90
40600;DHT22;26309;50.924;4.754;2024-02-21T09:30:29;11.20;99.90
40600;DHT22;26309;50.924;4.754;2024-02-21T09:32:55;11.30;99.90
40600;DHT22;26309;50.924;4.754;2024-02-21T09:35:24;11.40;99.90
40600;DHT22;26309;50.924;4.754;2024-02-21T09:37:52;11.50;99.90
40600;DHT22;26309;50.924;4.754;2024-02-21T09:40:18;11.70;99.90
40600;DHT22;26309;50.924;4.754;2024-02-21T09:42:46;11.60;99.90
40600;DHT22;26309;50.924;4.754;2024-02-21T09:45:21;11.60;99.90
40600;DHT22;26309;50.924;4.754;2024-02-21T09:50:39;11.80;99.90
40600;DHT22;26309;50.924;4.754;2024-02-21T09:53:06;11.80;99.90
40600;DHT22;26309;50.924;4.754;2024-02-21T09:55:33;11.80;99.90
40600;DHT22;26309;50.924;4.754;2024-02-21T09:58:02;11.80;99.90
40600;DHT22;26309;50.924;4.754;2024-02-21T10:00:29;11.80;99.90
40600;DHT22;26309;50.924;4.754;2024-02-21T10:02:54;11.90;99.90
40600;DHT22;26309;50.924;4.754;2024-02-21T10:05:21;12.00;99.90
40600;DHT22;26309;50.924;4.754;2024-02-21T10:07:48;12.10;99.90
40600;DHT22;26309;50.924;4.754;2024-02-21T10:10:15;12.20;99.90
40600;DHT22;26309;50.924;4.754;2024-02-21T10:12:51;12.40;99.90
40600;DHT22;26309;50.924;4.754;2024-02-21T10:15:22;12.30;99.90
40600;DHT22;26309;50.924;4.754;2024-02-21T10:17:59;12.40;99.90
40600;DHT22;26309;50.924;4.754;2024-02-21T10:20:26;12.40;99.90
40600;DHT22;26309;50.924;4.754;2024-02-21T10:23:05;12.40;99.90
40600;DHT22;26309;50.924;4.754;2024-02-21T10:25:39;12.40;99.90
40600;DHT22;26309;50.924;4.754;2024-02-21T10:28:12;12.30;99.90
40600;DHT22;26309;50.924;4.754;2024-02-21T10:30:38;12.40;99.90
40600;DHT22;26309;50.924;4.754;2024-02-21T10:33:15;12.40;99.90
40600;DHT22;26309;50.924;4.754;2024-02-21T10:35:41;12.50;99.90
40600;DHT22;26309;50.924;4.754;2024-02-21T10:38:10;12.40;99.90
40600;DHT22;26309;50.924;4.754;2024-02-21T10:40:36;12.40;99.90
40600;DHT22;26309;50.924;4.754;2024-02-21T10:43:02;12.50;99.90
40600;DHT22;26309;50.924;4.754;2024-02-21T10:45:30;12.60;99.90
40600;DHT22;26309;50.924;4.754;2024-02-21T10:48:12;12.60;99.90
40600;DHT22;26309;50.924;4.754;2024-02-21T10:59:01;13.00;99.90
40600;DHT22;26309;50.924;4.754;2024-02-21T11:01:28;13.00;99.90
40600;DHT22;26309;50.924;4.754;2024-02-21T11:04:01;13.00;99.90
40600;DHT22;26309;50.924;4.754;2024-02-21T11:06:28;13.00;99.90
40600;DHT22;26309;50.924;4.754;2024-02-21T11:09:04;13.00;99.90
40600;DHT22;26309;50.924;4.754;2024-02-21T11:11:40;13.00;99.90
40600;DHT22;26309;50.924;4.754;2024-02-21T11:14:27;13.00;99.90
40600;DHT22;26309;50.924;4.754;2024-02-21T11:16:53;13.00;99.90
40600;DHT22;26309;50.924;4.754;2024-02-21T11:19:28;13.00;99.90
40600;DHT22;26309;50.924;4.754;2024-02-21T11:21:55;12.80;99.90
40600;DHT22;26309;50.924;4.754;2024-02-21T11:24:33;12.90;99.90
40600;DHT22;26309;50.924;4.754;2024-02-21T11:27:08;13.00;99.90
40600;DHT22;26309;50.924;4.754;2024-02-21T11:29:45;12.80;99.90
40600;DHT22;26309;50.924;4.754;2024-02-21T11:32:15;12.90;99.90
40600;DHT22;26309;50.924;4.754;2024-02-21T11:34:52;12.90;99.90
40600;DHT22;26309;50.924;4.754;2024-02-21T11:37:19;13.00;99.90
40600;DHT22;26309;50.924;4.754;2024-02-21T11:39:45;13.00;99.90
40600;DHT22;26309;50.924;4.754;2024-02-21T11:42:11;13.00;99.90
40600;DHT22;26309;50.924;4.754;2024-02-21T11:44:38;13.00;99.90
40600;DHT22;26309;50.924;4.754;2024-02-21T11:47:06;13.00;99.90
40600;DHT22;26309;50.924;4.754;2024-02-21T11:49:47;13.00;99.90
40600;DHT22;26309;50.924;4.754;2024-02-21T11:52:16;13.00;99.90
40600;DHT22;26309;50.924;4.754;2024-02-21T11:54:44;12.90;99.90
40600;DHT22;26309;50.924;4.754;2024-02-21T11:57:11;12.80;99.90
40600;DHT22;26309;50.924;4.754;2024-02-21T11:59:39;12.80;99.90
40600;DHT22;26309;50.924;4.754;2024-02-21T12:02:05;12.90;99.90
40600;DHT22;26309;50.924;4.754;2024-02-21T12:04:32;13.00;99.90
40600;DHT22;26309;50.924;4.754;2024-02-21T12:06:59;12.80;99.90
40600;DHT22;26309;50.924;4.754;2024-02-21T12:09:26;12.80;99.90
40600;DHT22;26309;50.924;4.754;2024-02-21T12:11:59;12.60;99.90
40600;DHT22;26309;50.924;4.754;2024-02-21T12:14:26;12.60;99.90
40600;DHT22;26309;50.924;4.754;2024-02-21T12:16:52;12.40;99.90
40600;DHT22;26309;50.924;4.754;2024-02-21T12:19:17;12.50;99.90
40600;DHT22;26309;50.924;4.754;2024-02-21T12:21:43;12.40;99.90
40600;DHT22;26309;50.924;4.754;2024-02-21T12:24:22;12.40;99.90
40600;DHT22;26309;50.924;4.754;2024-02-21T12:26:52;12.50;99.90
40600;DHT22;26309;50.924;4.754;2024-02-21T12:29:22;12.50;99.90
40600;DHT22;26309;50.924;4.754;2024-02-21T12:31:48;12.50;99.90
40600;DHT22;26309;50.924;4.754;2024-02-21T12:34:16;12.50;99.90
40600;DHT22;26309;50.924;4.754;2024-02-21T12:36:43;12.40;99.90
40600;DHT22;26309;50.924;4.754;2024-02-21T12:39:10;12.40;99.90
40600;DHT22;26309;50.924;4.754;2024-02-21T12:41:36;12.30;99.90
40600;DHT22;26309;50.924;4.754;2024-02-21T12:44:07;12.40;99.90
40600;DHT22;26309;50.924;4.754;2024-02-21T12:46:34;12.30;99.90
40600;DHT22;26309;50.924;4.754;2024-02-21T12:49:00;12.30;99.90
40600;DHT22;26309;50.924;4.754;2024-02-21T12:51:26;12.20;99.90
40600;DHT22;26309;50.924;4.754;2024-02-21T12:53:52;12.10;99.90
40600;DHT22;26309;50.924;4.754;2024-02-21T12:56:18;12.20;99.90
40600;DHT22;26309;50.924;4.754;2024-02-21T12:58:44;12.30;99.90
40600;DHT22;26309;50.924;4.754;2024-02-21T13:01:10;12.40;99.90
40600;DHT22;26309;50.924;4.754;2024-02-21T13:03:36;12.50;99.90
40600;DHT22;26309;50.924;4.754;2024-02-21T13:06:04;12.60;99.90
40600;DHT22;26309;50.924;4.754;2024-02-21T13:08:30;12.40;99.90
40600;DHT22;26309;50.924;4.754;2024-02-21T13:10:55;12.50;99.90
40600;DHT22;26309;50.924;4.754;2024-02-21T13:13:21;12.50;99.90
40600;DHT22;26309;50.924;4.754;2024-02-21T13:15:47;12.50;99.90
40600;DHT22;26309;50.924;4.754;2024-02-21T13:18:13;12.50;99.90
40600;DHT22;26309;50.924;4.754;2024-02-21T13:20:39;12.50;99.90
40600;DHT22;26309;50.924;4.754;2024-02-21T13:23:05;12.50;99.90
40600;DHT22;26309;50.924;4.754;2024-02-21T13:25:33;12.50;99.90
40600;DHT22;26309;50.924;4.754;2024-02-21T13:27:58;12.50;99.90
40600;DHT22;26309;50.924;4.754;2024-02-21T13:30:24;12.70;99.90
40600;DHT22;26309;50.924;4.754;2024-02-21T13:32:51;12.80;99.90
40600;DHT22;26309;50.924;4.754;2024-02-21T13:35:17;12.80;99.90
40600;DHT22;26309;50.924;4.754;2024-02-21T13:37:43;12.80;99.90
40600;DHT22;26309;50.924;4.754;2024-02-21T13:40:09;12.80;99.90
40600;DHT22;26309;50.924;4.754;2024-02-21T13:42:36;12.70;99.90
40600;DHT22;26309;50.924;4.754;2024-02-21T13:45:04;12.70;99.90
40600;DHT22;26309;50.924;4.754;2024-02-21T13:47:31;12.70;99.90
40600;DHT22;26309;50.924;4.754;2024-02-21T13:50:01;12.60;99.90
40600;DHT22;26309;50.924;4.754;2024-02-21T13:52:28;12.50;99.90
40600;DHT22;26309;50.924;4.754;2024-02-21T13:54:54;12.50;99.90
40600;DHT22;26309;50.924;4.754;2024-02-21T13:57:20;12.40;99.90
40600;DHT22;26309;50.924;4.754;2024-02-21T13:59:46;12.50;99.90
40600;DHT22;26309;50.924;4.754;2024-02-21T14:02:12;12.40;99.90
40600;DHT22;26309;50.924;4.754;2024-02-21T14:04:38;12.40;99.90
40600;DHT22;26309;50.924;4.754;2024-02-21T14:07:04;12.50;99.90
40600;DHT22;26309;50.924;4.754;2024-02-21T14:09:30;12.50;99.90
40600;DHT22;26309;50.924;4.754;2024-02-21T14:11:56;12.40;99.90
40600;DHT22;26309;50.924;4.754;2024-02-21T14:14:22;12.20;99.90
40600;DHT22;26309;50.924;4.754;2024-02-21T14:16:47;12.10;99.90
40600;DHT22;26309;50.924;4.754;2024-02-21T14:19:14;12.00;99.90
40600;DHT22;26309;50.924;4.754;2024-02-21T14:21:43;12.00;99.90
40600;DHT22;26309;50.924;4.754;2024-02-21T14:24:11;11.90;99.90
40600;DHT22;26309;50.924;4.754;2024-02-21T14:26:38;12.00;99.90
40600;DHT22;26309;50.924;4.754;2024-02-21T14:29:07;12.00;99.90
40600;DHT22;26309;50.924;4.754;2024-02-21T14:31:33;11.90;99.90
40600;DHT22;26309;50.924;4.754;2024-02-21T14:33:59;11.90;99.90
40600;DHT22;26309;50.924;4.754;2024-02-21T14:36:26;11.90;99.90
40600;DHT22;26309;50.924;4.754;2024-02-21T14:38:52;11.90;99.90
40600;DHT22;26309;50.924;4.754;2024-02-21T14:41:18;11.90;99.90
40600;DHT22;26309;50.924;4.754;2024-02-21T14:43:45;12.00;99.90
40600;DHT22;26309;50.924;4.754;2024-02-21T14:46:12;11.90;99.90
40600;DHT22;26309;50.924;4.754;2024-02-21T14:48:38;11.90;99.90
40600;DHT22;26309;50.924;4.754;2024-02-21T14:51:04;11.90;99.90
40600;DHT22;26309;50.924;4.754;2024-02-21T14:53:30;11.90;99.90
40600;DHT22;26309;50.924;4.754;2024-02-21T14:55:56;11.90;99.90
40600;DHT22;26309;50.924;4.754;2024-02-21T14:58:24;11.70;99.90
40600;DHT22;26309;50.924;4.754;2024-02-21T15:00:50;11.60;99.90
40600;DHT22;26309;50.924;4.754;2024-02-21T15:03:19;11.50;99.90
40600;DHT22;26309;50.924;4.754;2024-02-21T15:05:46;11.50;99.90
40600;DHT22;26309;50.924;4.754;2024-02-21T15:08:12;11.50;99.90
40600;DHT22;26309;50.924;4.754;2024-02-21T15:10:43;11.50;99.90
40600;DHT22;26309;50.924;4.754;2024-02-21T15:13:09;11.50;99.90
40600;DHT22;26309;50.924;4.754;2024-02-21T15:15:35;11.50;99.90
40600;DHT22;26309;50.924;4.754;2024-02-21T15:18:01;11.40;99.90
40600;DHT22;26309;50.924;4.754;2024-02-21T15:20:28;11.30;99.90
40600;DHT22;26309;50.924;4.754;2024-02-21T15:22:55;11.30;99.90
40600;DHT22;26309;50.924;4.754;2024-02-21T15:25:21;11.20;99.90
40600;DHT22;26309;50.924;4.754;2024-02-21T15:27:47;11.30;99.90
40600;DHT22;26309;50.924;4.754;2024-02-21T15:30:14;11.20;99.90
40600;DHT22;26309;50.924;4.754;2024-02-21T15:32:40;11.10;99.90
40600;DHT22;26309;50.924;4.754;2024-02-21T15:35:09;10.90;99.90
40600;DHT22;26309;50.924;4.754;2024-02-21T15:37:38;10.90;99.90
40600;DHT22;26309;50.924;4.754;2024-02-21T15:40:05;10.80;99.90
40600;DHT22;26309;50.924;4.754;2024-02-21T15:42:34;10.80;99.90
40600;DHT22;26309;50.924;4.754;2024-02-21T15:45:00;10.90;99.90
40600;DHT22;26309;50.924;4.754;2024-02-21T15:47:29;10.90;99.90
40600;DHT22;26309;50.924;4.754;2024-02-21T15:49:55;10.80;99.90
40600;DHT22;26309;50.924;4.754;2024-02-21T15:52:21;10.70;99.90
40600;DHT22;26309;50.924;4.754;2024-02-21T15:54:47;10.70;99.90
40600;DHT22;26309;50.924;4.754;2024-02-21T15:57:13;10.70;99.90
40600;DHT22;26309;50.924;4.754;2024-02-21T15:59:40;10.80;99.90
40600;DHT22;26309;50.924;4.754;2024-02-21T16:02:09;10.80;99.90
40600;DHT22;26309;50.924;4.754;2024-02-21T16:04:34;10.80;99.90
40600;DHT22;26309;50.924;4.754;2024-02-21T16:07:02;10.80;99.90
40600;DHT22;26309;50.924;4.754;2024-02-21T16:09:28;10.80;99.90
40600;DHT22;26309;50.924;4.754;2024-02-21T16:11:56;10.80;99.90
40600;DHT22;26309;50.924;4.754;2024-02-21T16:14:22;10.80;99.90
40600;DHT22;26309;50.924;4.754;2024-02-21T16:16:49;10.70;99.90
40600;DHT22;26309;50.924;4.754;2024-02-21T16:19:15;10.60;99.90
40600;DHT22;26309;50.924;4.754;2024-02-21T16:21:42;10.70;99.90
40600;DHT22;26309;50.924;4.754;2024-02-21T16:24:11;10.80;99.90
40600;DHT22;26309;50.924;4.754;2024-02-21T16:26:37;10.70;99.90
40600;DHT22;26309;50.924;4.754;2024-02-21T16:29:04;10.70;99.90
40600;DHT22;26309;50.924;4.754;2024-02-21T16:31:34;10.70;99.90
40600;DHT22;26309;50.924;4.754;2024-02-21T16:34:03;10.70;99.90
40600;DHT22;26309;50.924;4.754;2024-02-21T16:36:29;10.70;99.90
40600;DHT22;26309;50.924;4.754;2024-02-21T16:38:58;10.60;99.90
40600;DHT22;26309;50.924;4.754;2024-02-21T16:41:26;10.50;99.90
40600;DHT22;26309;50.924;4.754;2024-02-21T16:43:53;10.40;99.90
40600;DHT22;26309;50.924;4.754;2024-02-21T16:46:19;10.40;99.90
40600;DHT22;26309;50.924;4.754;2024-02-21T16:48:46;10.40;99.90
40600;DHT22;26309;50.924;4.754;2024-02-21T16:51:13;10.40;99.90
40600;DHT22;26309;50.924;4.754;2024-02-21T16:53:39;10.40;99.90
40600;DHT22;26309;50.924;4.754;2024-02-21T16:56:05;10.40;99.90
40600;DHT22;26309;50.924;4.754;2024-02-21T16:58:31;10.40;99.90
40600;DHT22;26309;50.924;4.754;2024-02-21T17:01:05;10.40;99.90
40600;DHT22;26309;50.924;4.754;2024-02-21T17:03:35;10.40;99.90
40600;DHT22;26309;50.924;4.754;2024-02-21T17:06:02;10.40;99.90
40600;DHT22;26309;50.924;4.754;2024-02-21T17:08:30;10.40;99.90
40600;DHT22;26309;50.924;4.754;2024-02-21T17:10:56;10.40;99.90
40600;DHT22;26309;50.924;4.754;2024-02-21T17:13:23;10.40;99.90
40600;DHT22;26309;50.924;4.754;2024-02-21T17:15:50;10.40;99.90
40600;DHT22;26309;50.924;4.754;2024-02-21T17:18:16;10.50;99.90
40600;DHT22;26309;50.924;4.754;2024-02-21T17:20:43;10.40;99.90
40600;DHT22;26309;50.924;4.754;2024-02-21T17:23:11;10.40;99.90
40600;DHT22;26309;50.924;4.754;2024-02-21T17:25:41;10.40;99.90
40600;DHT22;26309;50.924;4.754;2024-02-21T17:28:08;10.50;99.90
40600;DHT22;26309;50.924;4.754;2024-02-21T17:30:34;10.40;99.90
40600;DHT22;26309;50.924;4.754;2024-02-21T17:33:05;10.30;99.90
40600;DHT22;26309;50.924;4.754;2024-02-21T17:35:35;10.30;99.90
40600;DHT22;26309;50.924;4.754;2024-02-21T17:38:04;10.40;99.90
40600;DHT22;26309;50.924;4.754;2024-02-21T17:40:32;10.50;99.90
40600;DHT22;26309;50.924;4.754;2024-02-21T17:42:58;10.50;99.90
40600;DHT22;26309;50.924;4.754;2024-02-21T17:45:24;10.50;99.90
40600;DHT22;26309;50.924;4.754;2024-02-21T17:47:49;10.60;99.90
40600;DHT22;26309;50.924;4.754;2024-02-21T17:50:17;10.50;99.90
40600;DHT22;26309;50.924;4.754;2024-02-21T17:52:44;10.50;99.90
40600;DHT22;26309;50.924;4.754;2024-02-21T17:55:10;10.40;99.90
40600;DHT22;26309;50.924;4.754;2024-02-21T17:57:38;10.40;99.90
40600;DHT22;26309;50.924;4.754;2024-02-21T18:00:05;10.50;99.90
40600;DHT22;26309;50.924;4.754;2024-02-21T18:02:32;10.60;99.90
40600;DHT22;26309;50.924;4.754;2024-02-21T18:04:59;10.50;99.90
40600;DHT22;26309;50.924;4.754;2024-02-21T18:07:25;10.50;99.90
40600;DHT22;26309;50.924;4.754;2024-02-21T18:09:50;10.50;99.90
40600;DHT22;26309;50.924;4.754;2024-02-21T18:12:17;10.50;99.90
40600;DHT22;26309;50.924;4.754;2024-02-21T18:14:43;10.50;99.90
40600;DHT22;26309;50.924;4.754;2024-02-21T18:17:09;10.40;99.90
40600;DHT22;26309;50.924;4.754;2024-02-21T18:19:36;10.50;99.90
40600;DHT22;26309;50.924;4.754;2024-02-21T18:22:02;10.40;99.90
40600;DHT22;26309;50.924;4.754;2024-02-21T18:24:28;10.40;99.90
40600;DHT22;26309;50.924;4.754;2024-02-21T18:26:54;10.40;99.90
40600;DHT22;26309;50.924;4.754;2024-02-21T18:29:20;10.40;99.90
40600;DHT22;26309;50.924;4.754;2024-02-21T18:31:45;10.40;99.90
40600;DHT22;26309;50.924;4.754;2024-02-21T18:34:11;10.40;99.90
40600;DHT22;26309;50.924;4.754;2024-02-21T18:36:38;10.40;99.90
40600;DHT22;26309;50.924;4.754;2024-02-21T18:39:04;10.30;99.90
40600;DHT22;26309;50.924;4.754;2024-02-21T18:41:30;10.30;99.90
40600;DHT22;26309;50.924;4.754;2024-02-21T18:43:56;10.30;99.90